Time;durP1;ratioP1;P1;durP2;ratioP2;P2;SDS_P1;SDS_P2;PMS_P1;PMS_P2;Temp;Humidity;BMP_temperature;BMP_pressure;BME280_temperature;BME280_humidity;BME280_pressure;Samples;Min_cycle;Max_cycle;Signal;HPM_P1;HPM_P2
2021/09/25 00:00:51;;;;;;;;;;;;;;;;;;5113826;28;20378;-70
2021/09/25 00:03:17;;;;;;;;;;;;;;;;;;5114031;28;19923;-70
2021/09/25 00:05:43;;;;;;;;;;;;;;;;;;5113894;28;19928;-70
2021/09/25 00:08:10;;;;;;;;;;;;;;;;;;5114273;28;19970;-70
2021/09/25 00:10:36;;;;;;;;;;;;;;;;;;5113632;28;20405;-70
2021/09/25 00:13:02;;;;;;;;;;;;;;;;;;5113776;28;19923;-70
2021/09/25 00:15:29;;;;;;;;;;;;;;;;;;5113680;28;20428;-70
2021/09/25 00:17:56;;;;;;;;;;;;;;;;;;5113501;28;19924;-70
2021/09/25 00:20:22;;;;;;;;;;;;;;;;;;5113482;28;19923;-71
2021/09/25 00:22:48;;;;;;;;;;;;;;;;;;5113760;28;20313;-70
2021/09/25 00:25:15;;;;;;;;;;;;;;;;;;5113434;28;19923;-71
2021/09/25 00:27:41;;;;;;;;;;;;;;;;;;5113540;28;19924;-70
2021/09/25 00:30:07;;;;;;;;;;;;;;;;;;5113461;28;20401;-70
2021/09/25 00:32:34;;;;;;;;;;;;;;;;;;5113490;28;19935;-71
2021/09/25 00:35:00;;;;;;;;;;;;;;;;;;5113686;28;19930;-70
2021/09/25 00:37:26;;;;;;;;;;;;;;;;;;5113340;28;20397;-70
2021/09/25 00:39:52;;;;;;;;;;;;;;;;;;5113325;28;19928;-70
2021/09/25 00:42:19;;;;;;;;;;;;;;;;;;5109960;28;20290;-71
2021/09/25 00:44:45;;;;;;;;;;;;;;;;;;5092621;28;19931;-70
2021/09/25 00:47:12;;;;;;;;;;;;;;;;;;5093216;28;19924;-70
2021/09/25 00:49:38;;;;;;;;;;;;;;;;;;5092990;28;19931;-70
2021/09/25 00:52:04;;;;;;;;;;;;;;;;;;5092748;28;20335;-70
2021/09/25 00:54:31;;;;;;;;;;;;;;;;;;5092910;28;19924;-70
2021/09/25 00:56:58;;;;;;;;;;;;;;;;;;5092834;28;20019;-71
2021/09/25 00:59:24;;;;;;;;;;;;;;;;;;5093088;28;19985;-70
2021/09/25 01:01:50;;;;;;;;;;;;;;;;;;5092427;28;19924;-70
2021/09/25 01:04:17;;;;;;;;;;;;;;;;;;5092971;28;19924;-70
2021/09/25 01:06:43;;;;;;;;;;;;;;;;;;5092304;28;20310;-70
2021/09/25 01:09:09;;;;;;;;;;;;;;;;;;5092533;28;19924;-69
2021/09/25 01:11:36;;;;;;;;;;;;;;;;;;5092648;28;19924;-69
2021/09/25 01:14:02;;;;;;;;;;;;;;;;;;5092471;28;19924;-71
2021/09/25 01:16:28;;;;;;;;;;;;;;;;;;5092460;28;19933;-70
2021/09/25 01:18:55;;;;;;;;;;;;;;;;;;5092275;28;19928;-70
2021/09/25 01:21:21;;;;;;;;;;;;;;;;;;5092784;28;19931;-69
2021/09/25 01:23:47;;;;;;;;;;;;;;;;;;5092183;28;20290;-69
2021/09/25 01:26:13;;;;;;;;;;;;;;;;;;5092249;28;19924;-69
2021/09/25 01:28:40;;;;;;;;;;;;;;;;;;5092512;28;19924;-69
2021/09/25 01:31:06;;;;;;;;;;;;;;;;;;5093657;28;19931;-69
2021/09/25 01:33:32;;;;;;;;;;;;;;;;;;5096792;28;19924;-70
2021/09/25 01:35:59;;;;;;;;;;;;;;;;;;5096278;28;19924;-69
2021/09/25 01:38:25;;;;;;;;;;;;;;;;;;5096660;28;19935;-69
2021/09/25 01:40:51;;;;;;;;;;;;;;;;;;5096014;28;20275;-69
2021/09/25 01:43:17;;;;;;;;;;;;;;;;;;5108141;28;19931;-69
2021/09/25 01:45:44;;;;;;;;;;;;;;;;;;5116829;28;19924;-69
2021/09/25 01:48:10;;;;;;;;;;;;;;;;;;5116615;28;20006;-69
2021/09/25 01:50:36;;;;;;;;;;;;;;;;;;5116374;28;19924;-69
2021/09/25 01:53:03;;;;;;;;;;;;;;;;;;5116803;28;19924;-70
2021/09/25 01:55:29;;;;;;;;;;;;;;;;;;5116414;28;19924;-69
2021/09/25 01:57:55;;;;;;;;;;;;;;;;;;5116555;28;19931;-71
2021/09/25 02:00:22;;;;;;;;;;;;;;;;;;5116750;28;19923;-70
2021/09/25 02:02:48;;;;;;;;;;;;;;;;;;5116170;28;19924;-70
2021/09/25 02:05:15;;;;;;;;;;;;;;;;;;5116578;28;19924;-70
2021/09/25 02:07:41;;;;;;;;;;;;;;;;;;5116333;28;19924;-70
2021/09/25 02:10:08;;;;;;;;;;;;;;;;;;5116618;28;19930;-70
2021/09/25 02:12:34;;;;;;;;;;;;;;;;;;5116124;28;19924;-70
2021/09/25 02:15:00;;;;;;;;;;;;;;;;;;5116515;28;19923;-70
2021/09/25 02:17:27;;;;;;;;;;;;;;;;;;5116441;28;19946;-70
2021/09/25 02:19:53;;;;;;;;;;;;;;;;;;5115847;28;19935;-70
2021/09/25 02:22:19;;;;;;;;;;;;;;;;;;5116208;28;19924;-70
2021/09/25 02:24:45;;;;;;;;;;;;;;;;;;5115243;28;20274;-70
2021/09/25 02:27:12;;;;;;;;;;;;;;;;;;5114624;28;19924;-70
2021/09/25 02:29:38;;;;;;;;;;;;;;;;;;5114758;28;19923;-70
2021/09/25 02:32:04;;;;;;;;;;;;;;;;;;5114712;28;19931;-70
2021/09/25 02:34:31;;;;;;;;;;;;;;;;;;5115141;28;19931;-70
2021/09/25 02:36:57;;;;;;;;;;;;;;;;;;5125880;28;19946;-70
2021/09/25 02:39:24;;;;;;;;;;;;;;;;;;5123462;28;20022;-70
2021/09/25 02:41:50;;;;;;;;;;;;;;;;;;5114465;28;20274;-69
2021/09/25 02:44:16;;;;;;;;;;;;;;;;;;5094325;28;19924;-70
2021/09/25 02:46:42;;;;;;;;;;;;;;;;;;5094119;28;19939;-70
2021/09/25 02:49:09;;;;;;;;;;;;;;;;;;5093934;28;20386;-70
2021/09/25 02:51:35;;;;;;;;;;;;;;;;;;5094081;28;19931;-70
2021/09/25 02:54:01;;;;;;;;;;;;;;;;;;5094143;28;19924;-70
2021/09/25 02:56:28;;;;;;;;;;;;;;;;;;5093872;28;20386;-70
2021/09/25 02:58:54;;;;;;;;;;;;;;;;;;5093897;28;19931;-69
2021/09/25 03:01:20;;;;;;;;;;;;;;;;;;5093726;28;20495;-71
2021/09/25 03:03:47;;;;;;;;;;;;;;;;;;5093403;28;19925;-70
2021/09/25 03:06:13;;;;;;;;;;;;;;;;;;5093704;28;19924;-71
2021/09/25 03:08:39;;;;;;;;;;;;;;;;;;5093727;28;19924;-70
2021/09/25 03:11:05;;;;;;;;;;;;;;;;;;5093930;28;19934;-70
2021/09/25 03:13:32;;;;;;;;;;;;;;;;;;5093524;28;20271;-70
2021/09/25 03:15:59;;;;;;;;;;;;;;;;;;5093213;28;19931;-70
2021/09/25 03:18:26;;;;;;;;;;;;;;;;;;5093520;28;20309;-70
2021/09/25 03:20:52;;;;;;;;;;;;;;;;;;5093205;28;19924;-71
2021/09/25 03:23:18;;;;;;;;;;;;;;;;;;5093642;28;19928;-70
2021/09/25 03:25:45;;;;;;;;;;;;;;;;;;5024260;28;1949953;-70
2021/09/25 03:28:11;;;;;;;;;;;;;;;;;;5094689;28;19924;-70
2021/09/25 03:30:38;;;;;;;;;;;;;;;;;;5094102;28;20305;-71
2021/09/25 03:33:04;;;;;;;;;;;;;;;;;;5094264;28;19924;-71
2021/09/25 03:35:30;;;;;;;;;;;;;;;;;;5094076;28;20340;-70
2021/09/25 03:37:57;;;;;;;;;;;;;;;;;;5092932;28;19924;-71
2021/09/25 03:40:23;;;;;;;;;;;;;;;;;;5093388;28;19924;-71
2021/09/25 03:42:49;;;;;;;;;;;;;;;;;;5093766;28;19931;-70
2021/09/25 03:45:16;;;;;;;;;;;;;;;;;;5094048;28;20287;-70
2021/09/25 03:47:42;;;;;;;;;;;;;;;;;;5093596;28;19923;-70
2021/09/25 03:50:08;;;;;;;;;;;;;;;;;;5094170;28;19924;-71
2021/09/25 03:52:35;;;;;;;;;;;;;;;;;;5093902;28;19924;-71
2021/09/25 03:55:01;;;;;;;;;;;;;;;;;;5092991;28;19924;-70
2021/09/25 03:57:27;;;;;;;;;;;;;;;;;;5094094;28;19924;-71
2021/09/25 03:59:53;;;;;;;;;;;;;;;;;;5093412;28;20382;-71
2021/09/25 04:02:20;;;;;;;;;;;;;;;;;;5093910;28;19924;-71
2021/09/25 04:04:46;;;;;;;;;;;;;;;;;;5093757;28;19928;-70
2021/09/25 04:07:12;;;;;;;;;;;;;;;;;;5093635;28;19925;-70
2021/09/25 04:09:39;;;;;;;;;;;;;;;;;;5093472;28;19924;-70
2021/09/25 04:12:05;;;;;;;;;;;;;;;;;;5093492;28;20290;-70
2021/09/25 04:14:31;;;;;;;;;;;;;;;;;;5093300;28;19924;-70
2021/09/25 04:16:58;;;;;;;;;;;;;;;;;;5093487;28;19924;-70
2021/09/25 04:19:25;;;;;;;;;;;;;;;;;;5093279;28;20405;-70
2021/09/25 04:21:51;;;;;;;;;;;;;;;;;;5093114;28;20436;-70
2021/09/25 04:24:17;;;;;;;;;;;;;;;;;;5093342;28;19925;-69
2021/09/25 04:26:44;;;;;;;;;;;;;;;;;;5093341;28;19924;-70
2021/09/25 04:29:10;;;;;;;;;;;;;;;;;;5093084;28;19930;-70
2021/09/25 04:31:36;;;;;;;;;;;;;;;;;;5093159;28;19935;-70
2021/09/25 04:34:03;;;;;;;;;;;;;;;;;;5093415;28;20031;-70
2021/09/25 04:36:29;;;;;;;;;;;;;;;;;;5092842;28;19924;-70
2021/09/25 04:38:56;;;;;;;;;;;;;;;;;;5092669;28;19982;-70
2021/09/25 04:41:22;;;;;;;;;;;;;;;;;;5093308;28;19930;-70
2021/09/25 04:43:48;;;;;;;;;;;;;;;;;;5092714;28;20282;-70
2021/09/25 04:46:14;;;;;;;;;;;;;;;;;;5092958;28;19924;-70
2021/09/25 04:48:41;;;;;;;;;;;;;;;;;;5092781;28;19931;-70
2021/09/25 04:51:07;;;;;;;;;;;;;;;;;;5092873;28;20408;-70
2021/09/25 04:53:33;;;;;;;;;;;;;;;;;;5092824;28;19931;-70
2021/09/25 04:56:00;;;;;;;;;;;;;;;;;;5092531;28;19979;-70
2021/09/25 04:58:29;;;;;;;;;;;;;;;;;;5093036;28;19924;-70
2021/09/25 05:00:56;;;;;;;;;;;;;;;;;;5092655;28;19928;-70
2021/09/25 05:03:22;;;;;;;;;;;;;;;;;;5092587;28;20378;-70
2021/09/25 05:05:48;;;;;;;;;;;;;;;;;;5092276;28;19924;-70
2021/09/25 05:08:15;;;;;;;;;;;;;;;;;;5092977;28;19931;-70
2021/09/25 05:10:41;;;;;;;;;;;;;;;;;;5092267;28;20321;-70
2021/09/25 05:13:07;;;;;;;;;;;;;;;;;;5092597;28;19935;-70
2021/09/25 05:15:34;;;;;;;;;;;;;;;;;;5092628;28;19932;-71
2021/09/25 05:18:00;;;;;;;;;;;;;;;;;;5092660;28;20125;-70
2021/09/25 05:20:26;;;;;;;;;;;;;;;;;;5092471;28;20397;-70
2021/09/25 05:22:53;;;;;;;;;;;;;;;;;;5092108;28;19931;-70
2021/09/25 05:25:19;;;;;;;;;;;;;;;;;;5092428;28;19931;-69
2021/09/25 05:27:48;;;;;;;;;;;;;;;;;;5092180;28;19924;-70
2021/09/25 05:30:14;;;;;;;;;;;;;;;;;;5092390;28;19924;-70
2021/09/25 05:32:40;;;;;;;;;;;;;;;;;;5092318;28;19924;-70
2021/09/25 05:35:07;;;;;;;;;;;;;;;;;;5092196;28;19924;-70
2021/09/25 05:37:33;;;;;;;;;;;;;;;;;;5092302;28;19930;-70
2021/09/25 05:40:00;;;;;;;;;;;;;;;;;;5092085;28;20290;-69
2021/09/25 05:42:26;;;;;;;;;;;;;;;;;;5092511;28;19930;-70
2021/09/25 05:44:54;;;;;;;;;;;;;;;;;;5092312;28;19930;-70
2021/09/25 05:47:20;;;;;;;;;;;;;;;;;;5092491;28;19924;-70
2021/09/25 05:49:47;;;;;;;;;;;;;;;;;;5092014;28;19931;-70
2021/09/25 05:52:13;;;;;;;;;;;;;;;;;;5092400;28;19969;-70
2021/09/25 05:54:40;;;;;;;;;;;;;;;;;;5091999;28;19939;-70
2021/09/25 05:57:06;;;;;;;;;;;;;;;;;;5092159;28;20378;-70
2021/09/25 05:59:32;;;;;;;;;;;;;;;;;;5092103;28;19931;-70
2021/09/25 06:01:58;;;;;;;;;;;;;;;;;;5092144;28;19928;-70
2021/09/25 06:04:25;;;;;;;;;;;;;;;;;;5092118;28;19937;-70
2021/09/25 06:06:51;;;;;;;;;;;;;;;;;;5092118;28;19924;-70
2021/09/25 06:09:17;;;;;;;;;;;;;;;;;;5091875;28;19924;-70
2021/09/25 06:11:44;;;;;;;;;;;;;;;;;;5092078;28;19932;-70
2021/09/25 06:14:10;;;;;;;;;;;;;;;;;;5092328;28;20294;-70
2021/09/25 06:16:36;;;;;;;;;;;;;;;;;;5091589;28;19931;-70
2021/09/25 06:19:03;;;;;;;;;;;;;;;;;;5095880;28;19931;-70
2021/09/25 06:21:29;;;;;;;;;;;;;;;;;;5095671;28;20290;-70
2021/09/25 06:23:55;;;;;;;;;;;;;;;;;;5095359;28;19927;-71
2021/09/25 06:26:21;;;;;;;;;;;;;;;;;;5095391;28;19923;-71
2021/09/25 06:28:48;;;;;;;;;;;;;;;;;;5095530;28;19935;-70
2021/09/25 06:31:14;;;;;;;;;;;;;;;;;;5095515;28;20377;-71
2021/09/25 06:33:42;;;;;;;;;;;;;;;;;;5095206;28;19924;-70
2021/09/25 06:36:08;;;;;;;;;;;;;;;;;;5095287;28;19928;-70
2021/09/25 06:38:34;;;;;;;;;;;;;;;;;;5095772;28;19924;-71
2021/09/25 06:41:01;;;;;;;;;;;;;;;;;;5095678;28;20262;-69
2021/09/25 06:43:27;;;;;;;;;;;;;;;;;;5095295;28;19924;-70
2021/09/25 06:45:53;;;;;;;;;;;;;;;;;;5095317;28;19934;-70
2021/09/25 06:48:20;;;;;;;;;;;;;;;;;;5095412;28;19924;-70
2021/09/25 06:50:46;;;;;;;;;;;;;;;;;;5095086;28;19936;-71
2021/09/25 06:53:12;;;;;;;;;;;;;;;;;;5095067;28;19924;-69
2021/09/25 06:55:38;;;;;;;;;;;;;;;;;;5094983;28;19935;-70
2021/09/25 06:58:06;;;;;;;;;;;;;;;;;;5094864;28;20374;-70
2021/09/25 07:00:32;;;;;;;;;;;;;;;;;;5095135;28;19924;-70
2021/09/25 07:02:59;;;;;;;;;;;;;;;;;;5094613;28;19928;-70
2021/09/25 07:05:25;;;;;;;;;;;;;;;;;;5094803;28;19924;-70
2021/09/25 07:07:51;;;;;;;;;;;;;;;;;;5094808;28;19934;-70
2021/09/25 07:10:17;;;;;;;;;;;;;;;;;;5094652;28;19924;-70
2021/09/25 07:12:44;;;;;;;;;;;;;;;;;;5094801;28;19931;-70
2021/09/25 07:15:10;;;;;;;;;;;;;;;;;;5094562;28;19924;-70
2021/09/25 07:17:36;;;;;;;;;;;;;;;;;;5094568;28;19931;-70
2021/09/25 07:20:03;;;;;;;;;;;;;;;;;;5094790;28;19924;-70
2021/09/25 07:22:29;;;;;;;;;;;;;;;;;;5094505;28;19928;-71
2021/09/25 07:24:55;;;;;;;;;;;;;;;;;;5094171;28;19928;-70
2021/09/25 07:27:22;;;;;;;;;;;;;;;;;;5094432;28;20286;-70
2021/09/25 07:29:49;;;;;;;;;;;;;;;;;;5092942;28;19931;-70
2021/09/25 07:32:15;;;;;;;;;;;;;;;;;;5094293;28;19924;-70
2021/09/25 07:34:42;;;;;;;;;;;;;;;;;;5094254;28;19924;-70
2021/09/25 07:37:08;;;;;;;;;;;;;;;;;;5093975;28;20267;-70
2021/09/25 07:39:34;;;;;;;;;;;;;;;;;;5094150;28;19925;-70
2021/09/25 07:42:00;;;;;;;;;;;;;;;;;;5094377;28;19931;-70
2021/09/25 07:44:27;;;;;;;;;;;;;;;;;;5094056;28;19924;-70
2021/09/25 07:46:53;;;;;;;;;;;;;;;;;;5094060;28;19924;-70
2021/09/25 07:49:19;;;;;;;;;;;;;;;;;;5093793;28;20420;-70
2021/09/25 07:51:46;;;;;;;;;;;;;;;;;;5093667;28;19932;-70
2021/09/25 07:54:12;;;;;;;;;;;;;;;;;;5094133;28;19924;-70
2021/09/25 07:56:38;;;;;;;;;;;;;;;;;;5093509;28;19946;-70
2021/09/25 07:59:04;;;;;;;;;;;;;;;;;;5093978;28;19924;-70
2021/09/25 08:01:31;;;;;;;;;;;;;;;;;;5093742;28;19924;-70
2021/09/25 08:03:57;;;;;;;;;;;;;;;;;;5093626;28;19924;-71
2021/09/25 08:06:23;;;;;;;;;;;;;;;;;;5093659;28;20382;-70
2021/09/25 08:08:50;;;;;;;;;;;;;;;;;;5093665;28;19935;-70
2021/09/25 08:11:16;;;;;;;;;;;;;;;;;;5093469;28;20371;-70
2021/09/25 08:13:42;;;;;;;;;;;;;;;;;;5093151;28;19924;-71
2021/09/25 08:16:08;;;;;;;;;;;;;;;;;;5093691;28;19924;-70
2021/09/25 08:18:35;;;;;;;;;;;;;;;;;;5093403;28;20374;-70
2021/09/25 08:21:01;;;;;;;;;;;;;;;;;;5093619;28;19931;-70
2021/09/25 08:23:27;;;;;;;;;;;;;;;;;;5093698;28;20352;-70
2021/09/25 08:25:54;;;;;;;;;;;;;;;;;;5092720;28;19928;-70
2021/09/25 08:28:20;;;;;;;;;;;;;;;;;;5093409;28;19927;-70
2021/09/25 08:30:46;;;;;;;;;;;;;;;;;;5092737;28;19924;-70
2021/09/25 08:33:13;;;;;;;;;;;;;;;;;;5092920;28;19924;-70
2021/09/25 08:35:39;;;;;;;;;;;;;;;;;;5099742;28;20301;-70
2021/09/25 08:38:05;;;;;;;;;;;;;;;;;;5108232;28;19931;-71
2021/09/25 08:40:32;;;;;;;;;;;;;;;;;;5092967;28;19924;-71
2021/09/25 08:42:58;;;;;;;;;;;;;;;;;;5103070;28;19924;-71
2021/09/25 08:45:24;;;;;;;;;;;;;;;;;;5113102;28;19924;-71
2021/09/25 08:47:51;;;;;;;;;;;;;;;;;;5113268;28;19927;-70
2021/09/25 08:50:17;;;;;;;;;;;;;;;;;;5113562;28;19924;-71
2021/09/25 08:52:43;;;;;;;;;;;;;;;;;;5092591;28;19925;-71
2021/09/25 08:55:09;;;;;;;;;;;;;;;;;;5092962;28;19931;-71
2021/09/25 08:57:36;;;;;;;;;;;;;;;;;;5092462;28;20401;-71
2021/09/25 09:00:02;;;;;;;;;;;;;;;;;;5092689;28;19924;-71
2021/09/25 09:02:28;;;;;;;;;;;;;;;;;;5092916;28;19931;-71
2021/09/25 09:04:55;;;;;;;;;;;;;;;;;;5092399;28;19924;-71
2021/09/25 09:07:21;;;;;;;;;;;;;;;;;;5092835;28;19935;-72
2021/09/25 09:09:47;;;;;;;;;;;;;;;;;;5092390;28;20385;-70
2021/09/25 09:12:14;;;;;;;;;;;;;;;;;;5092575;28;20413;-71
2021/09/25 09:14:40;;;;;;;;;;;;;;;;;;5092570;28;19924;-72
2021/09/25 09:17:06;;;;;;;;;;;;;;;;;;5092297;28;19924;-73
2021/09/25 09:19:32;;;;;;;;;;;;;;;;;;5092469;28;19925;-72
2021/09/25 09:21:59;;;;;;;;;;;;;;;;;;5092530;28;19939;-72
2021/09/25 09:24:25;;;;;;;;;;;;;;;;;;5092267;28;19931;-72
2021/09/25 09:26:51;;;;;;;;;;;;;;;;;;5092466;28;19928;-71
2021/09/25 09:29:18;;;;;;;;;;;;;;;;;;5092311;28;19936;-72
2021/09/25 09:31:44;;;;;;;;;;;;;;;;;;5092427;28;19925;-72
2021/09/25 09:34:10;;;;;;;;;;;;;;;;;;5092621;28;19924;-72
2021/09/25 09:36:36;;;;;;;;;;;;;;;;;;5091907;28;20401;-72
2021/09/25 09:39:03;;;;;;;;;;;;;;;;;;5092402;28;19924;-72
2021/09/25 09:41:29;;;;;;;;;;;;;;;;;;5092254;28;20302;-74
2021/09/25 09:43:55;;;;;;;;;;;;;;;;;;5091923;28;19928;-74
2021/09/25 09:46:22;;;;;;;;;;;;;;;;;;5092496;28;19935;-73
2021/09/25 09:48:48;;;;;;;;;;;;;;;;;;5091889;28;20293;-74
2021/09/25 09:51:15;;;;;;;;;;;;;;;;;;5092402;28;19978;-72
2021/09/25 09:53:41;;;;;;;;;;;;;;;;;;5095393;28;20386;-72
2021/09/25 09:56:07;;;;;;;;;;;;;;;;;;5096010;28;20014;-71
2021/09/25 09:58:34;;;;;;;;;;;;;;;;;;5096075;28;19924;-71
2021/09/25 10:01:00;;;;;;;;;;;;;;;;;;5095992;28;19924;-72
2021/09/25 10:03:26;;;;;;;;;;;;;;;;;;5096185;28;19924;-72
2021/09/25 10:05:55;;;;;;;;;;;;;;;;;;5095728;28;20378;-71
2021/09/25 10:08:21;;;;;;;;;;;;;;;;;;5095812;28;19928;-73
2021/09/25 10:10:47;;;;;;;;;;;;;;;;;;5095853;28;19947;-72
2021/09/25 10:13:16;;;;;;;;;;;;;;;;;;5095763;28;19924;-74
2021/09/25 10:15:43;;;;;;;;;;;;;;;;;;5095880;28;19977;-73
2021/09/25 10:18:09;;;;;;;;;;;;;;;;;;5095673;28;20374;-73
2021/09/25 10:20:35;;;;;;;;;;;;;;;;;;5095715;28;19931;-74
2021/09/25 10:23:02;;;;;;;;;;;;;;;;;;5095876;28;20040;-74
2021/09/25 10:25:28;;;;;;;;;;;;;;;;;;5095499;28;19924;-74
2021/09/25 10:27:54;;;;;;;;;;;;;;;;;;5095671;28;19928;-74
2021/09/25 10:30:20;;;;;;;;;;;;;;;;;;5095943;28;19934;-75
2021/09/25 10:32:48;;;;;;;;;;;;;;;;;;5095097;28;20370;-74
2021/09/25 10:35:15;;;;;;;;;;;;;;;;;;5095842;28;19931;-73
2021/09/25 10:37:41;;;;;;;;;;;;;;;;;;5095843;28;19924;-74
2021/09/25 10:40:08;;;;;;;;;;;;;;;;;;5095658;28;19924;-74
2021/09/25 10:42:34;;;;;;;;;;;;;;;;;;5104416;28;19923;-74
2021/09/25 10:45:00;;;;;;;;;;;;;;;;;;5115993;28;19924;-74
2021/09/25 10:47:27;;;;;;;;;;;;;;;;;;5117001;27;19950;-74
2021/09/25 10:49:53;;;;;;;;;;;;;;;;;;5125302;28;19930;-74
2021/09/25 10:52:19;;;;;;;;;;;;;;;;;;5121147;28;19966;-75
2021/09/25 10:54:46;;;;;;;;;;;;;;;;;;5118573;28;20393;-75
2021/09/25 10:57:12;;;;;;;;;;;;;;;;;;5115575;28;19934;-74
2021/09/25 10:59:38;;;;;;;;;;;;;;;;;;5115551;28;19928;-74
2021/09/25 11:02:05;;;;;;;;;;;;;;;;;;5115672;28;19924;-73
2021/09/25 11:04:31;;;;;;;;;;;;;;;;;;5114986;28;20282;-74
2021/09/25 11:06:58;;;;;;;;;;;;;;;;;;5115039;28;19923;-73
2021/09/25 11:09:25;;;;;;;;;;;;;;;;;;5115216;28;19923;-73
2021/09/25 11:11:51;;;;;;;;;;;;;;;;;;5115183;28;19924;-73
2021/09/25 11:14:17;;;;;;;;;;;;;;;;;;5115230;28;19967;-74
2021/09/25 11:16:44;;;;;;;;;;;;;;;;;;5115067;28;19954;-75
2021/09/25 11:19:10;;;;;;;;;;;;;;;;;;5115051;28;20400;-74
2021/09/25 11:21:36;;;;;;;;;;;;;;;;;;5114956;28;19924;-74
2021/09/25 11:24:03;;;;;;;;;;;;;;;;;;5114896;28;19924;-74
2021/09/25 11:26:29;;;;;;;;;;;;;;;;;;5114673;28;19923;-75
2021/09/25 11:28:55;;;;;;;;;;;;;;;;;;5114536;28;20679;-75
2021/09/25 11:31:22;;;;;;;;;;;;;;;;;;5114836;28;19930;-75
2021/09/25 11:33:48;;;;;;;;;;;;;;;;;;5114810;28;19924;-74
2021/09/25 11:36:14;;;;;;;;;;;;;;;;;;5114821;28;19924;-74
2021/09/25 11:38:40;;;;;;;;;;;;;;;;;;5114388;28;19924;-75
2021/09/25 11:41:07;;;;;;;;;;;;;;;;;;5114752;28;19931;-74
2021/09/25 11:43:34;;;;;;;;;;;;;;;;;;5097271;28;19924;-74
2021/09/25 11:46:03;;;;;;;;;;;;;;;;;;5094009;28;20022;-74
2021/09/25 11:48:32;;;;;;;;;;;;;;;;;;5094020;28;19928;-74
2021/09/25 11:50:58;;;;;;;;;;;;;;;;;;5093677;28;20453;-74
2021/09/25 11:53:24;;;;;;;;;;;;;;;;;;5093871;28;19930;-74
2021/09/25 11:55:50;;;;;;;;;;;;;;;;;;5093947;28;19924;-74
2021/09/25 11:58:17;;;;;;;;;;;;;;;;;;5094168;28;19924;-74
2021/09/25 12:00:45;;;;;;;;;;;;;;;;;;5093672;28;19924;-74
2021/09/25 12:03:11;;;;;;;;;;;;;;;;;;5094050;28;19924;-74
2021/09/25 12:05:38;;;;;;;;;;;;;;;;;;5093344;28;19931;-74
2021/09/25 12:08:04;;;;;;;;;;;;;;;;;;5093600;28;19924;-74
2021/09/25 12:10:30;;;;;;;;;;;;;;;;;;5093713;28;19924;-74
2021/09/25 12:12:56;;;;;;;;;;;;;;;;;;5093175;28;20396;-73
2021/09/25 12:15:23;;;;;;;;;;;;;;;;;;5092686;28;19927;-75
2021/09/25 12:17:49;;;;;;;;;;;;;;;;;;5093138;28;19924;-74
2021/09/25 12:20:15;;;;;;;;;;;;;;;;;;5093494;28;19930;-73
2021/09/25 12:22:44;;;;;;;;;;;;;;;;;;5092809;28;19931;-73
2021/09/25 12:25:11;;;;;;;;;;;;;;;;;;5093204;28;19967;-74
2021/09/25 12:27:41;;;;;;;;;;;;;;;;;;5092969;28;20382;-72
2021/09/25 12:30:09;;;;;;;;;;;;;;;;;;5093153;28;20429;-73
2021/09/25 12:32:35;;;;;;;;;;;;;;;;;;5093034;28;20370;-73
2021/09/25 12:35:01;;;;;;;;;;;;;;;;;;5093018;28;20390;-74
2021/09/25 12:37:28;;;;;;;;;;;;;;;;;;5093064;28;19930;-73
2021/09/25 12:39:54;;;;;;;;;;;;;;;;;;5093159;28;19928;-74
2021/09/25 12:42:20;;;;;;;;;;;;;;;;;;5099918;28;20400;-74
2021/09/25 12:44:47;;;;;;;;;;;;;;;;;;5112984;28;19923;-74
2021/09/25 12:47:13;;;;;;;;;;;;;;;;;;5113566;28;19934;-74
2021/09/25 12:49:39;;;;;;;;;;;;;;;;;;5113053;28;20286;-74
2021/09/25 12:52:06;;;;;;;;;;;;;;;;;;5113308;28;19930;-74
2021/09/25 12:54:32;;;;;;;;;;;;;;;;;;5113198;28;19923;-74
2021/09/25 12:56:58;;;;;;;;;;;;;;;;;;5112743;28;19924;-74
2021/09/25 12:59:25;;;;;;;;;;;;;;;;;;5113492;28;19931;-74
2021/09/25 13:01:53;;;;;;;;;;;;;;;;;;5112733;28;20537;-74
2021/09/25 13:04:19;;;;;;;;;;;;;;;;;;5112960;28;20382;-74
2021/09/25 13:06:45;;;;;;;;;;;;;;;;;;5112757;28;19924;-72
2021/09/25 13:09:12;;;;;;;;;;;;;;;;;;5113228;28;19924;-72
2021/09/25 13:11:38;;;;;;;;;;;;;;;;;;5112898;28;20010;-72
2021/09/25 13:14:04;;;;;;;;;;;;;;;;;;5112920;28;19924;-72
2021/09/25 13:16:31;;;;;;;;;;;;;;;;;;5113358;28;19932;-72
2021/09/25 13:18:59;;;;;;;;;;;;;;;;;;5112399;28;20467;-73
2021/09/25 13:21:25;;;;;;;;;;;;;;;;;;5113119;28;19924;-73
2021/09/25 13:23:51;;;;;;;;;;;;;;;;;;5112526;28;19930;-73
2021/09/25 13:26:18;;;;;;;;;;;;;;;;;;5114031;28;19924;-73
2021/09/25 13:28:44;;;;;;;;;;;;;;;;;;5116833;28;20392;-73
2021/09/25 13:31:10;;;;;;;;;;;;;;;;;;5117136;28;19924;-73
2021/09/25 13:33:36;;;;;;;;;;;;;;;;;;5117042;28;19923;-73
2021/09/25 13:36:03;;;;;;;;;;;;;;;;;;5117040;28;20254;-73
2021/09/25 13:38:29;;;;;;;;;;;;;;;;;;5117187;28;20308;-73
2021/09/25 13:40:55;;;;;;;;;;;;;;;;;;5116515;28;19928;-72
2021/09/25 13:43:22;;;;;;;;;;;;;;;;;;5101357;28;19924;-72
2021/09/25 13:45:48;;;;;;;;;;;;;;;;;;5096399;28;19924;-71
2021/09/25 13:48:14;;;;;;;;;;;;;;;;;;5096159;28;19924;-71
2021/09/25 13:50:41;;;;;;;;;;;;;;;;;;5096234;28;19924;-72
2021/09/25 13:53:09;;;;;;;;;;;;;;;;;;5096139;28;20313;-72
2021/09/25 13:55:35;;;;;;;;;;;;;;;;;;5095845;28;19927;-72
2021/09/25 13:58:02;;;;;;;;;;;;;;;;;;5096260;28;19925;-71
2021/09/25 14:00:28;;;;;;;;;;;;;;;;;;5096348;28;19924;-72
2021/09/25 14:02:56;;;;;;;;;;;;;;;;;;5095678;28;19936;-71
2021/09/25 14:05:22;;;;;;;;;;;;;;;;;;5095864;28;20293;-71
2021/09/25 14:07:49;;;;;;;;;;;;;;;;;;5095516;28;19925;-73
2021/09/25 14:10:15;;;;;;;;;;;;;;;;;;5096022;28;20066;-73
2021/09/25 14:12:41;;;;;;;;;;;;;;;;;;5095352;28;20373;-71
2021/09/25 14:15:08;;;;;;;;;;;;;;;;;;5095539;28;19931;-71
2021/09/25 14:17:34;;;;;;;;;;;;;;;;;;5095651;28;19943;-71
2021/09/25 14:20:00;;;;;;;;;;;;;;;;;;5095605;28;20396;-70
2021/09/25 14:22:27;;;;;;;;;;;;;;;;;;5095747;28;19924;-71
2021/09/25 14:24:53;;;;;;;;;;;;;;;;;;5095118;28;19970;-71
2021/09/25 14:27:19;;;;;;;;;;;;;;;;;;5095739;28;19947;-71
2021/09/25 14:29:45;;;;;;;;;;;;;;;;;;5093683;28;19931;-72
2021/09/25 14:32:12;;;;;;;;;;;;;;;;;;5095631;28;19930;-71
2021/09/25 14:34:38;;;;;;;;;;;;;;;;;;5095539;28;19924;-71
2021/09/25 14:37:04;;;;;;;;;;;;;;;;;;5095113;28;19928;-71
2021/09/25 14:39:31;;;;;;;;;;;;;;;;;;5095057;28;19932;-71
2021/09/25 14:41:59;;;;;;;;;;;;;;;;;;5094942;28;19924;-71
2021/09/25 14:44:26;;;;;;;;;;;;;;;;;;5095522;28;20420;-72
2021/09/25 14:46:52;;;;;;;;;;;;;;;;;;5094885;28;19932;-72
2021/09/25 14:49:18;;;;;;;;;;;;;;;;;;5095722;28;19924;-72
2021/09/25 14:51:45;;;;;;;;;;;;;;;;;;5094983;28;20294;-73
2021/09/25 14:54:11;;;;;;;;;;;;;;;;;;5101131;28;19924;-72
2021/09/25 14:56:37;;;;;;;;;;;;;;;;;;5104409;28;19924;-73
2021/09/25 14:59:03;;;;;;;;;;;;;;;;;;5101499;28;19924;-72
2021/09/25 15:01:30;;;;;;;;;;;;;;;;;;5094851;28;20386;-72
2021/09/25 15:03:56;;;;;;;;;;;;;;;;;;5094597;28;19928;-72
2021/09/25 15:06:23;;;;;;;;;;;;;;;;;;5094906;28;20382;-72
2021/09/25 15:08:50;;;;;;;;;;;;;;;;;;5094703;28;19924;-72
2021/09/25 15:11:16;;;;;;;;;;;;;;;;;;5095161;28;19948;-72
2021/09/25 15:13:42;;;;;;;;;;;;;;;;;;5094525;28;20006;-72
2021/09/25 15:16:09;;;;;;;;;;;;;;;;;;5094972;28;19931;-72
2021/09/25 15:18:35;;;;;;;;;;;;;;;;;;5094910;28;19978;-72
2021/09/25 15:21:01;;;;;;;;;;;;;;;;;;5094614;28;19931;-72
2021/09/25 15:23:27;;;;;;;;;;;;;;;;;;5094890;28;19931;-72
2021/09/25 15:25:54;;;;;;;;;;;;;;;;;;5094078;28;20394;-72
2021/09/25 15:28:20;;;;;;;;;;;;;;;;;;5094696;28;20370;-72
2021/09/25 15:30:46;;;;;;;;;;;;;;;;;;5094072;28;19931;-72
2021/09/25 15:33:13;;;;;;;;;;;;;;;;;;5094680;28;19924;-72
2021/09/25 15:35:39;;;;;;;;;;;;;;;;;;5094124;28;19924;-72
2021/09/25 15:38:06;;;;;;;;;;;;;;;;;;5094477;28;19998;-72
2021/09/25 15:40:32;;;;;;;;;;;;;;;;;;5094158;28;19924;-72
2021/09/25 15:42:58;;;;;;;;;;;;;;;;;;5093987;28;20306;-72
2021/09/25 15:45:25;;;;;;;;;;;;;;;;;;5094196;28;19935;-72
2021/09/25 15:47:51;;;;;;;;;;;;;;;;;;5093975;28;19928;-72
2021/09/25 15:50:17;;;;;;;;;;;;;;;;;;5093340;28;19924;-72
2021/09/25 15:52:44;;;;;;;;;;;;;;;;;;5093757;28;19931;-72
2021/09/25 15:55:10;;;;;;;;;;;;;;;;;;5094241;28;19924;-72
2021/09/25 15:57:36;;;;;;;;;;;;;;;;;;5093696;28;19924;-72
2021/09/25 16:00:03;;;;;;;;;;;;;;;;;;5094036;28;19924;-72
2021/09/25 16:02:29;;;;;;;;;;;;;;;;;;5093718;28;20374;-72
2021/09/25 16:04:55;;;;;;;;;;;;;;;;;;5093842;28;20265;-72
2021/09/25 16:07:21;;;;;;;;;;;;;;;;;;5093946;28;19924;-72
2021/09/25 16:09:48;;;;;;;;;;;;;;;;;;5093553;28;20453;-73
2021/09/25 16:12:14;;;;;;;;;;;;;;;;;;5093603;28;19924;-73
2021/09/25 16:14:40;;;;;;;;;;;;;;;;;;5093724;28;19924;-73
2021/09/25 16:17:07;;;;;;;;;;;;;;;;;;5093764;28;19924;-73
2021/09/25 16:19:33;;;;;;;;;;;;;;;;;;5093658;28;19931;-73
2021/09/25 16:22:00;;;;;;;;;;;;;;;;;;5093549;28;19931;-73
2021/09/25 16:24:26;;;;;;;;;;;;;;;;;;5093154;28;19971;-71
2021/09/25 16:26:52;;;;;;;;;;;;;;;;;;5093474;28;19930;-73
2021/09/25 16:29:19;;;;;;;;;;;;;;;;;;5093525;28;19931;-73
2021/09/25 16:31:46;;;;;;;;;;;;;;;;;;5093084;28;19983;-73
2021/09/25 16:34:14;;;;;;;;;;;;;;;;;;5093530;28;19938;-73
2021/09/25 16:36:40;;;;;;;;;;;;;;;;;;5093157;28;19924;-72
2021/09/25 16:39:06;;;;;;;;;;;;;;;;;;5093460;28;20267;-72